Time;durP1;ratioP1;P1;durP2;ratioP2;P2;SDS_P1;SDS_P2;PMS_P1;PMS_P2;Temp;Humidity;BMP_temperature;BMP_pressure;BME280_temperature;BME280_humidity;BME280_pressure;Samples;Min_cycle;Max_cycle;Signal;HPM_P1;HPM_P2
2023/04/25 00:00:42;;;;;;;4.70;1.52;;;;;12.40;100882.00;;;;5059938;28;20202;-79
2023/04/25 00:03:10;;;;;;;3.47;1.67;;;;;12.40;100883.00;;;;5068246;28;20230;-79
2023/04/25 00:05:38;;;;;;;5.03;1.70;;;;;12.40;100884.00;;;;5067970;28;20191;-78
2023/04/25 00:08:06;;;;;;;6.47;1.48;;;;;12.40;100882.00;;;;5068309;28;20199;-79
2023/04/25 00:10:33;;;;;;;3.83;1.52;;;;;12.40;100890.00;;;;5067438;28;20203;-79
2023/04/25 00:13:02;;;;;;;7.00;1.75;;;;;12.40;100883.00;;;;5067522;28;20203;-79
2023/04/25 00:15:30;;;;;;;6.50;1.15;;;;;12.40;100886.00;;;;5053949;28;20324;-78
2023/04/25 00:17:58;;;;;;;3.22;1.65;;;;;12.40;100888.00;;;;5067438;28;20606;-78
2023/04/25 00:20:26;;;;;;;4.70;1.45;;;;;12.40;100894.00;;;;5052939;28;20661;-79
2023/04/25 00:22:54;;;;;;;4.88;1.38;;;;;12.50;100897.00;;;;5047982;28;20235;-79
2023/04/25 00:25:21;;;;;;;4.38;1.20;;;;;12.50;100902.00;;;;5048513;28;20612;-78
2023/04/25 00:27:48;;;;;;;4.40;1.45;;;;;12.50;100904.00;;;;5048028;28;21006;-79
2023/04/25 00:30:16;;;;;;;4.72;1.77;;;;;12.50;100904.00;;;;5048505;28;20576;-78
2023/04/25 00:32:43;;;;;;;6.20;1.60;;;;;12.40;100910.00;;;;5048064;28;20700;-78
2023/04/25 00:35:11;;;;;;;6.13;1.92;;;;;12.40;100909.00;;;;5048689;28;20580;-78
2023/04/25 00:37:39;;;;;;;5.45;1.27;;;;;12.40;100904.00;;;;5048029;28;20557;-78
2023/04/25 00:40:08;;;;;;;3.83;1.58;;;;;12.40;100901.00;;;;5048105;28;20691;-79
2023/04/25 00:42:37;;;;;;;3.97;1.67;;;;;12.40;100894.00;;;;5047505;28;20724;-78
2023/04/25 00:45:07;;;;;;;3.90;1.63;;;;;12.40;100901.00;;;;5048138;28;20195;-79
2023/04/25 00:47:35;;;;;;;7.70;1.50;;;;;12.40;100895.00;;;;5047862;28;20192;-79
2023/04/25 00:50:03;;;;;;;4.55;1.40;;;;;12.40;100899.00;;;;5048685;28;20200;-79
2023/04/25 00:52:30;;;;;;;3.63;1.52;;;;;12.40;100902.00;;;;5062643;28;20205;-79
2023/04/25 00:55:00;;;;;;;3.03;1.77;;;;;12.40;100904.00;;;;5067772;28;20206;-79
2023/04/25 00:57:28;;;;;;;5.95;1.73;;;;;12.40;100902.00;;;;5054333;28;20198;-79
2023/04/25 00:59:56;;;;;;;4.60;1.50;;;;;12.40;100893.00;;;;5048899;28;20208;-79
2023/04/25 01:02:25;;;;;;;2.83;1.13;;;;;12.40;100898.00;;;;5048414;28;20732;-79
2023/04/25 01:04:52;;;;;;;3.35;1.23;;;;;12.40;100902.00;;;;5048324;28;20283;-79
2023/04/25 01:07:20;;;;;;;4.28;1.50;;;;;12.40;100905.00;;;;5048555;28;20291;-79
2023/04/25 01:09:47;;;;;;;6.75;1.50;;;;;12.30;100896.00;;;;5048986;28;20195;-79
2023/04/25 01:12:16;;;;;;;5.10;1.13;;;;;12.30;100899.00;;;;5048807;28;20225;-79
2023/04/25 01:14:44;;;;;;;3.05;0.93;;;;;12.30;100897.00;;;;5047277;28;20224;-78
2023/04/25 01:17:12;;;;;;;5.75;1.40;;;;;12.30;100894.00;;;;5048459;28;20270;-78
2023/04/25 01:19:40;;;;;;;3.72;1.35;;;;;12.30;100901.00;;;;5048425;28;20196;-79
2023/04/25 01:22:10;;;;;;;4.28;1.50;;;;;12.20;100895.00;;;;5047646;28;20215;-79
2023/04/25 01:24:37;;;;;;;3.38;1.08;;;;;12.20;100900.00;;;;5050787;28;20211;-79
2023/04/25 01:27:05;;;;;;;4.68;1.35;;;;;12.20;100903.00;;;;5066548;28;20199;-79
2023/04/25 01:29:33;;;;;;;5.55;1.80;;;;;12.10;100908.00;;;;5068071;28;20206;-79
2023/04/25 01:32:01;;;;;;;3.70;1.65;;;;;12.10;100910.00;;;;5047067;28;20209;-78
2023/04/25 01:34:29;;;;;;;3.47;1.80;;;;;12.10;100914.00;;;;5047628;28;20196;-79
2023/04/25 01:36:56;;;;;;;3.50;1.00;;;;;12.10;100920.00;;;;5047700;28;20657;-79
2023/04/25 01:39:25;;;;;;;2.63;1.45;;;;;12.00;100922.00;;;;5047022;28;20200;-79
2023/04/25 01:41:52;;;;;;;3.53;1.15;;;;;12.00;100921.00;;;;5052424;28;20224;-79
2023/04/25 01:44:20;;;;;;;2.65;1.20;;;;;11.90;100922.00;;;;5058876;28;20226;-79
2023/04/25 01:46:47;;;;;;;4.47;1.38;;;;;11.90;100927.00;;;;5051798;28;20208;-79
2023/04/25 01:49:14;;;;;;;5.40;1.42;;;;;11.90;100935.00;;;;5052061;28;20199;-79
2023/04/25 01:51:42;;;;;;;3.40;1.13;;;;;11.80;100935.00;;;;5051191;28;20188;-79
2023/04/25 01:54:10;;;;;;;4.95;1.73;;;;;11.80;100942.00;;;;5051656;28;20210;-78
2023/04/25 01:56:40;;;;;;;3.38;1.08;;;;;11.70;100940.00;;;;5067191;28;20202;-78
2023/04/25 01:59:07;;;;;;;4.40;1.52;;;;;11.70;100938.00;;;;5062879;28;20199;-78
2023/04/25 02:01:34;;;;;;;4.88;2.08;;;;;11.60;100941.00;;;;5071567;28;20191;-79
2023/04/25 02:04:02;;;;;;;4.10;1.75;;;;;11.60;100937.00;;;;5071341;28;20226;-78
2023/04/25 02:06:30;;;;;;;5.47;1.67;;;;;11.50;100941.00;;;;5071705;28;20211;-79
2023/04/25 02:08:57;;;;;;;4.32;1.70;;;;;11.50;100945.00;;;;5071736;28;20198;-79
2023/04/25 02:11:25;;;;;;;3.85;1.30;;;;;11.50;100951.00;;;;5071380;28;20195;-79
2023/04/25 02:13:53;;;;;;;6.40;1.48;;;;;11.40;100950.00;;;;5055701;28;20200;-79
2023/04/25 02:16:23;;;;;;;2.33;1.42;;;;;11.40;100955.00;;;;5034221;28;20365;-79
2023/04/25 02:18:52;;;;;;;3.00;1.27;;;;;11.40;100944.00;;;;4999456;28;20203;-79
2023/04/25 02:21:20;;;;;;;3.78;1.00;;;;;11.30;100949.00;;;;5001084;28;21007;-79
2023/04/25 02:23:49;;;;;;;4.57;2.03;;;;;11.30;100940.00;;;;5019808;28;20232;-79
2023/04/25 02:26:16;;;;;;;4.13;1.38;;;;;11.30;100954.00;;;;5051444;28;21119;-79
2023/04/25 02:28:43;;;;;;;5.43;1.38;;;;;11.20;100952.00;;;;5051680;28;20735;-79
2023/04/25 02:31:12;;;;;;;3.75;1.17;;;;;11.20;100955.00;;;;5051678;28;20192;-79
2023/04/25 02:33:39;;;;;;;3.45;1.70;;;;;11.20;100959.00;;;;5050746;28;20232;-78
2023/04/25 02:36:07;;;;;;;4.40;1.15;;;;;11.20;100956.00;;;;5051021;28;20571;-78
2023/04/25 02:38:35;;;;;;;2.33;1.13;;;;;11.10;100955.00;;;;5050495;28;20286;-78
2023/04/25 02:41:02;;;;;;;5.78;1.70;;;;;11.10;100952.00;;;;5050668;28;20245;-78
2023/04/25 02:43:30;;;;;;;5.85;1.30;;;;;11.10;100947.00;;;;5062682;28;20226;-78
2023/04/25 02:45:57;;;;;;;2.80;1.13;;;;;11.10;100946.00;;;;5069470;28;20198;-79
2023/04/25 02:48:26;;;;;;;5.75;2.03;;;;;11.10;100951.00;;;;5070594;28;20187;-79
2023/04/25 02:50:53;;;;;;;3.30;1.50;;;;;11.10;100948.00;;;;5056316;28;20195;-78
2023/04/25 02:53:20;;;;;;;4.20;1.00;;;;;11.10;100954.00;;;;5050943;28;20200;-79
2023/04/25 02:55:47;;;;;;;2.33;1.40;;;;;11.10;100952.00;;;;5050322;28;20200;-79
2023/04/25 02:58:15;;;;;;;4.75;1.83;;;;;11.10;100951.00;;;;5049312;28;20200;-79
2023/04/25 03:00:42;;;;;;;4.10;1.33;;;;;11.00;100942.00;;;;5050465;28;20207;-78
2023/04/25 03:03:09;;;;;;;5.72;1.30;;;;;11.00;100951.00;;;;5050741;28;20230;-78
2023/04/25 03:05:38;;;;;;;5.68;2.05;;;;;11.00;100945.00;;;;5050341;28;20188;-78
2023/04/25 03:08:06;;;;;;;4.00;1.20;;;;;11.00;100956.00;;;;5050682;28;20210;-79
2023/04/25 03:10:33;;;;;;;4.60;1.98;;;;;11.00;100956.00;;;;5049752;28;20199;-79
2023/04/25 03:13:00;;;;;;;4.68;1.30;;;;;11.00;100968.00;;;;5049682;28;20200;-78
2023/04/25 03:15:27;;;;;;;2.20;1.27;;;;;11.00;100961.00;;;;5049795;28;20199;-78
2023/04/25 03:17:55;;;;;;;3.92;1.50;;;;;11.00;100959.00;;;;5049372;28;20214;-79
2023/04/25 03:20:22;;;;;;;3.88;1.85;;;;;11.10;100966.00;;;;5049643;28;20608;-78
2023/04/25 03:22:51;;;;;;;2.88;1.08;;;;;11.10;100964.00;;;;5049119;28;20238;-78
2023/04/25 03:25:18;;;;;;;3.45;1.55;;;;;11.10;100965.00;;;;5057228;28;20223;-78
2023/04/25 03:27:45;;;;;;;3.15;1.40;;;;;11.10;100965.00;;;;5061658;28;20538;-78
2023/04/25 03:30:13;;;;;;;3.28;2.13;;;;;11.10;100970.00;;;;5054788;28;20559;-79
2023/04/25 03:32:40;;;;;;;2.45;1.35;;;;;11.10;100966.00;;;;5068762;28;20226;-79
2023/04/25 03:35:08;;;;;;;3.03;1.48;;;;;11.10;100970.00;;;;5068834;28;20198;-79
2023/04/25 03:37:35;;;;;;;5.90;1.73;;;;;11.20;100972.00;;;;5069259;28;20202;-79
2023/04/25 03:40:05;;;;;;;4.03;1.80;;;;;11.20;100972.00;;;;5061040;28;20211;-79
2023/04/25 03:42:33;;;;;;;4.82;1.60;;;;;11.20;100975.00;;;;5049743;28;20211;-78
2023/04/25 03:45:00;;;;;;;6.13;2.22;;;;;11.20;100972.00;;;;5049051;28;20227;-79
2023/04/25 03:47:27;;;;;;;3.35;1.65;;;;;11.30;100978.00;;;;5051906;28;20206;-79
2023/04/25 03:49:54;;;;;;;6.78;2.17;;;;;11.30;100987.00;;;;5068324;28;20202;-78
2023/04/25 03:52:22;;;;;;;4.30;1.80;;;;;11.30;100982.00;;;;5068580;28;20191;-78
2023/04/25 03:54:49;;;;;;;3.53;1.33;;;;;11.30;100974.00;;;;5061538;28;20200;-78
2023/04/25 03:57:18;;;;;;;3.75;1.08;;;;;11.30;100977.00;;;;5048425;28;20218;-78
2023/04/25 03:59:45;;;;;;;2.13;1.10;;;;;11.30;100980.00;;;;5056645;28;20206;-78
2023/04/25 04:02:12;;;;;;;1.73;0.90;;;;;11.30;100982.00;;;;5048834;28;20207;-79
2023/04/25 04:04:39;;;;;;;2.55;1.15;;;;;11.30;100986.00;;;;5048590;28;20231;-79
2023/04/25 04:07:07;;;;;;;3.20;1.10;;;;;11.30;100990.00;;;;5048397;28;20192;-78
2023/04/25 04:09:34;;;;;;;3.33;1.10;;;;;11.40;100993.00;;;;5048685;28;20195;-79
2023/04/25 04:12:02;;;;;;;4.15;1.40;;;;;11.40;100993.00;;;;5067506;28;20202;-78
2023/04/25 04:14:31;;;;;;;5.57;1.27;;;;;11.40;100993.00;;;;5067378;28;20212;-78
2023/04/25 04:16:58;;;;;;;6.40;1.10;;;;;11.40;100994.00;;;;5047939;28;20196;-78
2023/04/25 04:19:25;;;;;;;2.67;1.00;;;;;11.50;100997.00;;;;5048250;28;20222;-79
2023/04/25 04:21:52;;;;;;;2.15;0.90;;;;;11.50;100997.00;;;;5048638;28;20199;-78
2023/04/25 04:24:20;;;;;;;3.65;1.30;;;;;11.50;100999.00;;;;5048119;28;20235;-79
2023/04/25 04:26:47;;;;;;;2.85;0.95;;;;;11.60;101005.00;;;;5060645;28;20214;-78
2023/04/25 04:29:20;;;;;;;2.47;1.13;;;;;11.60;101009.00;;;;5048837;28;20214;-78
2023/04/25 04:31:49;;;;;;;1.60;0.75;;;;;11.60;101012.00;;;;5065974;28;20691;-78
2023/04/25 04:34:17;;;;;;;2.33;0.90;;;;;11.60;101017.00;;;;5068773;28;20199;-78
2023/04/25 04:36:45;;;;;;;2.40;1.02;;;;;11.60;101025.00;;;;5068402;28;20214;-78
2023/04/25 04:39:13;;;;;;;1.77;0.90;;;;;11.60;101028.00;;;;5068419;28;20199;-78
2023/04/25 04:41:40;;;;;;;2.25;1.17;;;;;11.60;101032.00;;;;5058203;28;20207;-78
2023/04/25 04:44:08;;;;;;;5.55;1.30;;;;;11.60;101024.00;;;;5048329;28;20238;-78
2023/04/25 04:46:37;;;;;;;2.08;0.90;;;;;11.60;101028.00;;;;5047965;28;20200;-79
2023/04/25 04:49:06;;;;;;;4.35;1.15;;;;;11.60;101027.00;;;;5062507;28;20306;-79
2023/04/25 04:51:33;;;;;;;1.73;0.88;;;;;11.60;101029.00;;;;5068375;28;20207;-79
2023/04/25 04:54:02;;;;;;;2.75;1.05;;;;;11.60;101031.00;;;;5068365;28;20568;-79
2023/04/25 04:56:30;;;;;;;1.73;0.77;;;;;11.60;101036.00;;;;5066523;28;20200;-79
2023/04/25 04:58:58;;;;;;;4.03;0.80;;;;;11.60;101041.00;;;;5055683;28;20207;-79
2023/04/25 05:01:25;;;;;;;3.72;1.08;;;;;11.70;101035.00;;;;5048610;28;20200;-79
2023/04/25 05:03:53;;;;;;;2.00;1.08;;;;;11.70;101049.00;;;;5048336;28;20227;-79
2023/04/25 05:06:21;;;;;;;2.28;0.90;;;;;11.70;101040.00;;;;5055670;28;20202;-79
2023/04/25 05:08:49;;;;;;;4.28;0.82;;;;;11.70;101040.00;;;;5067920;28;20202;-79
2023/04/25 05:11:16;;;;;;;1.90;0.80;;;;;11.80;101049.00;;;;5068416;28;20673;-79
2023/04/25 05:13:43;;;;;;;3.22;1.10;;;;;11.80;101049.00;;;;5067905;28;20195;-78
2023/04/25 05:16:11;;;;;;;1.63;0.90;;;;;11.80;101055.00;;;;5068348;28;20206;-79
2023/04/25 05:18:38;;;;;;;4.47;0.85;;;;;11.90;101061.00;;;;5066955;28;20203;-79
2023/04/25 05:21:05;;;;;;;2.55;1.08;;;;;11.90;101069.00;;;;5070731;28;20195;-79
2023/04/25 05:23:34;;;;;;;5.05;1.48;;;;;11.90;101062.00;;;;5071817;28;20237;-79
2023/04/25 05:26:02;;;;;;;4.38;1.27;;;;;12.00;101069.00;;;;5073297;28;20527;-80
2023/04/25 05:28:29;;;;;;;2.70;0.82;;;;;12.00;101076.00;;;;5071635;28;20202;-79
2023/04/25 05:30:56;;;;;;;4.72;1.20;;;;;12.00;101077.00;;;;5060195;28;20199;-79
2023/04/25 05:33:24;;;;;;;3.47;1.00;;;;;12.10;101073.00;;;;5052172;28;20231;-78
2023/04/25 05:35:51;;;;;;;2.97;0.75;;;;;12.10;101073.00;;;;5052543;28;20667;-79
2023/04/25 05:38:19;;;;;;;4.25;1.35;;;;;12.10;101079.00;;;;5051778;28;20192;-78
2023/04/25 05:40:47;;;;;;;3.28;0.77;;;;;12.20;101086.00;;;;5062874;28;20195;-78
2023/04/25 05:43:15;;;;;;;4.70;1.13;;;;;12.20;101083.00;;;;5051729;28;20668;-79
2023/04/25 05:45:42;;;;;;;4.57;0.75;;;;;12.20;101087.00;;;;5069715;28;20775;-79
2023/04/25 05:48:09;;;;;;;3.45;0.90;;;;;12.20;101088.00;;;;5071974;28;20203;-79
2023/04/25 05:50:37;;;;;;;3.83;0.95;;;;;12.30;101090.00;;;;5071279;28;20199;-78
2023/04/25 05:53:05;;;;;;;2.20;0.85;;;;;12.30;101091.00;;;;5071928;28;20203;-79
2023/04/25 05:55:32;;;;;;;3.40;0.77;;;;;12.30;101083.00;;;;5071545;28;20199;-79
2023/04/25 05:58:01;;;;;;;1.30;0.57;;;;;12.40;101094.00;;;;5052247;28;20195;-79
2023/04/25 06:00:29;;;;;;;3.17;0.90;;;;;12.40;101090.00;;;;5051990;28;20577;-79
2023/04/25 06:02:56;;;;;;;4.30;0.73;;;;;12.50;101093.00;;;;5050738;28;20633;-79
2023/04/25 06:05:23;;;;;;;3.95;1.27;;;;;12.50;101106.00;;;;5050742;28;20612;-79
2023/04/25 06:07:51;;;;;;;4.00;0.95;;;;;12.60;101103.00;;;;5051064;28;20199;-79
2023/04/25 06:10:18;;;;;;;1.10;0.60;;;;;12.60;101109.00;;;;5051456;28;20200;-78
2023/04/25 06:12:45;;;;;;;4.93;1.10;;;;;12.70;101114.00;;;;5070484;28;20207;-79
2023/04/25 06:15:15;;;;;;;4.85;0.73;;;;;12.70;101110.00;;;;5055149;28;20196;-80
2023/04/25 06:17:42;;;;;;;1.30;0.68;;;;;12.80;101121.00;;;;5049634;28;20246;-79
2023/04/25 06:20:11;;;;;;;5.45;1.33;;;;;12.80;101125.00;;;;5051079;28;20287;-79
2023/04/25 06:22:38;;;;;;;1.23;0.63;;;;;12.90;101123.00;;;;5050449;28;20220;-79
2023/04/25 06:25:07;;;;;;;5.78;0.77;;;;;12.90;101125.00;;;;5050649;28;20220;-79
2023/04/25 06:27:34;;;;;;;7.32;0.80;;;;;12.90;101135.00;;;;5050461;28;20204;-79
2023/04/25 06:30:01;;;;;;;3.05;0.77;;;;;12.90;101129.00;;;;5050460;28;20192;-79
2023/04/25 06:32:30;;;;;;;1.77;0.63;;;;;13.00;101131.00;;;;5050310;28;20251;-78
2023/04/25 06:34:57;;;;;;;1.85;0.57;;;;;13.00;101124.00;;;;5050602;28;20207;-79
2023/04/25 06:37:25;;;;;;;1.30;0.60;;;;;13.00;101135.00;;;;5050842;28;20204;-79
2023/04/25 06:39:52;;;;;;;3.75;0.88;;;;;13.00;101132.00;;;;5051211;28;20217;-78
2023/04/25 06:42:19;;;;;;;5.53;0.90;;;;;13.00;101135.00;;;;5051114;28;20207;-79
2023/04/25 06:44:47;;;;;;;5.20;0.82;;;;;13.10;101133.00;;;;5060826;28;20222;-79
2023/04/25 06:47:14;;;;;;;3.53;0.63;;;;;13.10;101146.00;;;;5069702;28;20207;-79
2023/04/25 06:49:43;;;;;;;1.40;0.75;;;;;13.10;101148.00;;;;5050328;28;20210;-79
2023/04/25 06:52:10;;;;;;;3.22;1.02;;;;;13.20;101147.00;;;;5049911;28;20202;-78
2023/04/25 06:54:37;;;;;;;4.65;1.20;;;;;13.20;101151.00;;;;5050149;28;20283;-79
2023/04/25 06:57:05;;;;;;;5.25;0.85;;;;;13.20;101153.00;;;;5050363;28;20200;-78
2023/04/25 06:59:32;;;;;;;4.15;1.00;;;;;13.30;101159.00;;;;5051407;28;20191;-78
2023/04/25 07:01:59;;;;;;;3.05;0.73;;;;;13.30;101160.00;;;;5067556;28;20195;-78
2023/04/25 07:04:27;;;;;;;4.25;1.10;;;;;13.30;101158.00;;;;5069518;28;20656;-78
2023/04/25 07:06:56;;;;;;;3.75;1.15;;;;;13.30;101169.00;;;;5049915;28;20195;-78
2023/04/25 07:09:23;;;;;;;5.05;0.77;;;;;13.30;101164.00;;;;5049884;28;20231;-79
2023/04/25 07:11:50;;;;;;;2.92;0.70;;;;;13.40;101161.00;;;;5050449;28;20287;-79
2023/04/25 07:14:18;;;;;;;6.82;0.70;;;;;13.40;101164.00;;;;5062022;28;20191;-79
2023/04/25 07:16:45;;;;;;;7.80;1.40;;;;;13.50;101157.00;;;;5069960;28;20203;-79
2023/04/25 07:19:12;;;;;;;3.53;0.70;;;;;13.50;101178.00;;;;5069712;28;20696;-79
2023/04/25 07:21:40;;;;;;;2.33;0.90;;;;;13.60;101182.00;;;;5067885;28;20204;-79
2023/04/25 07:24:08;;;;;;;3.63;0.65;;;;;13.60;101183.00;;;;5068808;28;20228;-78
2023/04/25 07:26:36;;;;;;;3.47;0.90;;;;;13.70;101186.00;;;;5069805;28;20199;-78
2023/04/25 07:29:03;;;;;;;6.57;1.00;;;;;13.80;101184.00;;;;5069743;28;20206;-79
2023/04/25 07:31:30;;;;;;;5.03;1.00;;;;;13.90;101185.00;;;;5053834;28;20308;-79
2023/04/25 07:33:57;;;;;;;2.40;0.60;;;;;14.10;101185.00;;;;5049196;28;20232;-79
2023/04/25 07:36:26;;;;;;;3.92;0.90;;;;;14.20;101185.00;;;;5050210;28;20210;-79
2023/04/25 07:38:53;;;;;;;6.38;0.55;;;;;14.40;101187.00;;;;5065382;28;20694;-79
2023/04/25 07:41:22;;;;;;;5.38;1.58;;;;;14.60;101182.00;;;;5061128;28;20199;-78
2023/04/25 07:43:50;;;;;;;4.70;1.00;;;;;14.70;101191.00;;;;5056379;28;20202;-79
2023/04/25 07:46:17;;;;;;;4.40;0.63;;;;;14.80;101194.00;;;;5049429;28;20243;-79
2023/04/25 07:48:45;;;;;;;4.60;0.60;;;;;14.90;101192.00;;;;5049486;28;20211;-79
2023/04/25 07:51:12;;;;;;;2.65;0.70;;;;;15.00;101195.00;;;;5049244;28;20188;-79
2023/04/25 07:53:40;;;;;;;1.90;0.50;;;;;15.00;101194.00;;;;5049107;28;20194;-79
2023/04/25 07:56:09;;;;;;;3.28;0.85;;;;;15.10;101205.00;;;;5049660;28;20682;-79
2023/04/25 07:58:37;;;;;;;3.17;0.68;;;;;15.10;101215.00;;;;5049817;28;20203;-78
2023/04/25 08:01:05;;;;;;;3.42;0.85;;;;;15.20;101220.00;;;;5049361;28;20199;-78
2023/04/25 08:03:32;;;;;;;2.03;0.90;;;;;15.10;101221.00;;;;5061294;28;20245;-79
2023/04/25 08:05:59;;;;;;;2.45;0.30;;;;;15.10;101222.00;;;;5069416;28;20227;-79
2023/04/25 08:08:26;;;;;;;2.97;0.65;;;;;15.10;101228.00;;;;5069034;28;20198;-79
2023/04/25 08:10:54;;;;;;;2.45;0.50;;;;;15.10;101225.00;;;;5069254;28;20202;-78
2023/04/25 08:13:21;;;;;;;5.20;1.20;;;;;15.20;101231.00;;;;5066748;28;20195;-79
2023/04/25 08:15:50;;;;;;;1.75;0.60;;;;;15.20;101238.00;;;;5048974;28;20576;-79
2023/04/25 08:18:17;;;;;;;2.42;0.63;;;;;15.30;101244.00;;;;5048998;28;20574;-79
2023/04/25 08:20:44;;;;;;;4.00;0.65;;;;;15.30;101243.00;;;;5048776;28;20218;-78
2023/04/25 08:23:12;;;;;;;8.30;0.85;;;;;15.30;101245.00;;;;5057834;28;20216;-78
2023/04/25 08:25:39;;;;;;;2.72;0.60;;;;;15.30;101254.00;;;;5048642;28;20238;-78
2023/04/25 08:28:07;;;;;;;4.55;0.98;;;;;15.30;101249.00;;;;5048385;28;20202;-78
2023/04/25 08:30:34;;;;;;;8.02;0.60;;;;;15.30;101251.00;;;;5049108;28;20199;-79
2023/04/25 08:33:03;;;;;;;2.05;0.50;;;;;15.20;101249.00;;;;5048326;28;20220;-78
2023/04/25 08:35:30;;;;;;;5.47;0.88;;;;;15.20;101255.00;;;;5048480;28;20199;-79
2023/04/25 08:37:57;;;;;;;5.45;0.70;;;;;15.30;101249.00;;;;5048718;28;20203;-79
2023/04/25 08:40:29;;;;;;;2.78;0.80;;;;;15.40;101268.00;;;;5048514;28;20610;-79
2023/04/25 08:42:58;;;;;;;4.70;0.70;;;;;15.50;101259.00;;;;5048970;28;20195;-79
2023/04/25 08:45:27;;;;;;;2.58;0.40;;;;;15.50;101270.00;;;;5048962;28;20220;-78
2023/04/25 08:47:56;;;;;;;7.00;1.05;;;;;15.50;101282.00;;;;5048334;28;20218;-79
2023/04/25 08:50:26;;;;;;;1.60;0.75;;;;;15.50;101284.00;;;;5056252;28;20583;-78
2023/04/25 08:52:55;;;;;;;5.50;0.52;;;;;15.60;101286.00;;;;5067370;28;20208;-78
2023/04/25 08:55:24;;;;;;;2.10;0.80;;;;;15.60;101292.00;;;;5068555;28;20215;-79
2023/04/25 08:57:51;;;;;;;2.13;0.50;;;;;15.60;101293.00;;;;5068038;28;20202;-79
2023/04/25 09:00:20;;;;;;;5.65;0.60;;;;;15.60;101301.00;;;;5056108;28;20195;-79
2023/04/25 09:02:48;;;;;;;2.03;0.63;;;;;15.60;101298.00;;;;5048973;28;20278;-78
2023/04/25 09:05:16;;;;;;;4.38;0.52;;;;;15.60;101318.00;;;;5048964;28;20228;-78
2023/04/25 09:07:44;;;;;;;1.75;0.50;;;;;15.50;101327.00;;;;5048067;28;20191;-79
2023/04/25 09:10:12;;;;;;;1.58;0.45;;;;;15.50;101323.00;;;;5047379;28;20206;-79
2023/04/25 09:12:39;;;;;;;2.92;0.60;;;;;15.40;101331.00;;;;5048015;28;20199;-78
2023/04/25 09:15:09;;;;;;;1.48;0.65;;;;;15.40;101331.00;;;;5047689;28;20222;-79
2023/04/25 09:17:39;;;;;;;1.50;0.40;;;;;15.30;101330.00;;;;5047545;28;20810;-78
2023/04/25 09:20:08;;;;;;;1.92;0.80;;;;;15.30;101326.00;;;;5050124;28;20282;-78
2023/04/25 09:22:36;;;;;;;0.95;0.65;;;;;15.30;101329.00;;;;5056471;28;20218;-78
2023/04/25 09:25:09;;;;;;;0.52;0.20;;;;;15.40;101332.00;;;;5067425;28;20214;-79
2023/04/25 09:27:36;;;;;;;3.83;0.80;;;;;15.40;101320.00;;;;5066842;28;20252;-79
2023/04/25 09:30:05;;;;;;;2.22;0.40;;;;;15.50;101321.00;;;;5062167;28;20570;-79
2023/04/25 09:32:32;;;;;;;1.48;0.60;;;;;15.60;101325.00;;;;5047005;28;20258;-79
2023/04/25 09:35:00;;;;;;;3.67;0.60;;;;;15.70;101331.00;;;;5047382;28;20208;-78
2023/04/25 09:37:29;;;;;;;2.38;0.50;;;;;15.80;101325.00;;;;5046933;28;20203;-77
2023/04/25 09:39:59;;;;;;;2.60;0.50;;;;;15.90;101327.00;;;;5052380;28;20203;-79
2023/04/25 09:42:31;;;;;;;1.90;0.40;;;;;16.10;101325.00;;;;5057312;28;20302;-79
2023/04/25 09:45:01;;;;;;;2.20;0.30;;;;;16.30;101331.00;;;;5047486;28;20223;-78
2023/04/25 09:47:29;;;;;;;4.97;0.43;;;;;16.40;101323.00;;;;5047592;28;20235;-79
2023/04/25 09:49:56;;;;;;;1.30;0.30;;;;;16.60;101343.00;;;;5047068;28;20637;-78
2023/04/25 09:52:25;;;;;;;2.13;0.40;;;;;16.70;101332.00;;;;5047675;28;20200;-78
2023/04/25 09:54:53;;;;;;;3.50;0.73;;;;;16.80;101341.00;;;;5048071;28;20200;-78
2023/04/25 09:57:22;;;;;;;1.00;0.28;;;;;16.90;101357.00;;;;5048259;28;20211;-78
2023/04/25 09:59:52;;;;;;;3.15;0.52;;;;;16.90;101358.00;;;;5050068;28;20195;-78
2023/04/25 10:02:21;;;;;;;3.20;0.60;;;;;16.90;101364.00;;;;5058236;28;20198;-79
2023/04/25 10:04:52;;;;;;;2.08;0.60;;;;;16.80;101383.00;;;;5067620;28;20661;-78
2023/04/25 10:07:20;;;;;;;1.83;1.00;;;;;16.80;101385.00;;;;5070409;28;20580;-77
2023/04/25 10:09:50;;;;;;;2.65;0.60;;;;;16.70;101389.00;;;;5071415;28;20203;-78
2023/04/25 10:12:18;;;;;;;2.72;0.63;;;;;16.60;101390.00;;;;5068325;28;20282;-78
2023/04/25 10:14:46;;;;;;;0.60;0.30;;;;;16.60;101397.00;;;;5070277;28;20903;-78
2023/04/25 10:17:15;;;;;;;1.42;0.50;;;;;16.60;101387.00;;;;5071256;28;20195;-79
2023/04/25 10:19:43;;;;;;;3.15;0.90;;;;;16.60;101390.00;;;;5071455;28;20203;-79
2023/04/25 10:22:15;;;;;;;2.03;0.50;;;;;16.50;101389.00;;;;5060584;28;21016;-79
2023/04/25 10:24:44;;;;;;;1.33;0.40;;;;;16.60;101376.00;;;;5050685;28;20219;-79
2023/04/25 10:27:13;;;;;;;3.03;0.40;;;;;16.60;101385.00;;;;5051328;28;20857;-79
2023/04/25 10:29:41;;;;;;;1.65;0.32;;;;;16.70;101385.00;;;;5058952;28;20208;-78
2023/04/25 10:32:09;;;;;;;1.58;0.25;;;;;16.70;101378.00;;;;5049963;28;21165;-79
2023/04/25 10:34:42;;;;;;;2.58;0.50;;;;;16.70;101382.00;;;;5050361;28;20212;-78
2023/04/25 10:37:13;;;;;;;3.38;0.90;;;;;16.80;101384.00;;;;5050934;28;20195;-78
2023/04/25 10:39:42;;;;;;;2.38;0.43;;;;;16.80;101383.00;;;;5051325;28;20771;-79
2023/04/25 10:42:09;;;;;;;1.13;0.40;;;;;16.80;101390.00;;;;5051233;28;20390;-79
2023/04/25 10:44:38;;;;;;;1.58;0.40;;;;;16.80;101387.00;;;;5050807;28;20195;-78
2023/04/25 10:47:09;;;;;;;2.55;0.40;;;;;16.80;101396.00;;;;5064045;28;20222;-78
2023/04/25 10:49:37;;;;;;;2.55;0.55;;;;;16.90;101385.00;;;;5071353;28;20210;-79
2023/04/25 10:52:25;;;;;;;2.70;0.60;;;;;16.90;101397.00;;;;5062091;28;20231;-78
2023/04/25 10:54:54;;;;;;;1.58;0.43;;;;;17.00;101397.00;;;;5050234;28;20203;-78
2023/04/25 10:57:32;;;;;;;3.17;0.82;;;;;17.00;101392.00;;;;5050452;28;20210;-79
2023/04/25 11:00:03;;;;;;;2.65;0.82;;;;;17.10;101392.00;;;;5050469;28;20207;-79
2023/04/25 11:02:30;;;;;;;3.63;0.50;;;;;17.20;101392.00;;;;5051134;28;20192;-79
2023/04/25 11:04:58;;;;;;;3.60;0.30;;;;;17.20;101398.00;;;;5050165;28;20546;-79
2023/04/25 11:07:35;;;;;;;4.80;0.73;;;;;17.10;101391.00;;;;5050337;28;20207;-78
2023/04/25 11:10:04;;;;;;;2.47;0.40;;;;;17.10;101390.00;;;;5068076;28;20259;-78
2023/04/25 11:12:32;;;;;;;1.65;0.60;;;;;17.00;101401.00;;;;5064061;28;20222;-79
2023/04/25 11:15:04;;;;;;;2.20;0.65;;;;;16.90;101406.00;;;;5050259;28;20226;-80
2023/04/25 11:17:31;;;;;;;1.95;0.60;;;;;16.90;101400.00;;;;5048606;28;20740;-80
2023/04/25 11:19:59;;;;;;;2.33;0.40;;;;;17.00;101390.00;;;;5050580;28;20199;-79
2023/04/25 11:22:29;;;;;;;1.33;0.43;;;;;17.10;101392.00;;;;5057614;28;20196;-79
2023/04/25 11:24:57;;;;;;;3.45;0.65;;;;;17.20;101392.00;;;;5050165;28;20203;-79
2023/04/25 11:27:24;;;;;;;1.40;0.60;;;;;17.30;101407.00;;;;5049200;28;20249;-78
2023/04/25 11:29:53;;;;;;;0.98;0.30;;;;;17.30;101408.00;;;;5054565;28;20199;-79
2023/04/25 11:32:21;;;;;;;2.20;0.40;;;;;17.30;101424.00;;;;5069301;28;20224;-79
2023/04/25 11:34:48;;;;;;;2.33;0.50;;;;;17.30;101429.00;;;;5070321;28;20210;-79
2023/04/25 11:37:16;;;;;;;2.22;0.63;;;;;17.20;101432.00;;;;5069485;28;20218;-78
2023/04/25 11:39:48;;;;;;;2.05;0.65;;;;;17.20;101443.00;;;;5055824;28;20334;-78
2023/04/25 11:42:16;;;;;;;1.67;0.50;;;;;17.20;101431.00;;;;5065137;28;20203;-78
2023/04/25 11:44:44;;;;;;;1.83;0.47;;;;;17.10;101434.00;;;;5049506;28;20206;-78
2023/04/25 11:47:11;;;;;;;2.08;0.47;;;;;17.10;101436.00;;;;5049902;28;20234;-79
2023/04/25 11:49:40;;;;;;;2.47;0.65;;;;;17.10;101438.00;;;;5061104;28;20206;-78
2023/04/25 11:52:08;;;;;;;3.53;0.40;;;;;17.10;101435.00;;;;5067537;28;20206;-78
2023/04/25 11:54:37;;;;;;;1.05;0.28;;;;;17.20;101444.00;;;;5068757;28;20279;-78
2023/04/25 11:57:06;;;;;;;2.28;0.52;;;;;17.10;101424.00;;;;5069242;28;20199;-78
2023/04/25 11:59:33;;;;;;;1.98;0.32;;;;;17.20;101431.00;;;;5064033;28;20264;-78
2023/04/25 12:02:01;;;;;;;1.33;0.35;;;;;17.20;101439.00;;;;5048736;28;20211;-78
2023/04/25 12:04:32;;;;;;;2.30;0.80;;;;;17.20;101434.00;;;;5049238;28;20205;-78
2023/04/25 12:07:01;;;;;;;2.60;0.93;;;;;17.30;101426.00;;;;5049105;28;20721;-78
2023/04/25 12:09:33;;;;;;;2.47;0.50;;;;;17.40;101429.00;;;;5059967;28;20199;-80
2023/04/25 12:12:03;;;;;;;1.77;0.65;;;;;17.50;101443.00;;;;5068289;28;20203;-79